Terminal Aerodrome Forecast
Issued by NWS Omaha/Valley, NE

Home | Current Version | Previous Version | Text Only | Print | Product List | Glossary On
Versions: 1 2 3 4 5 6 7 8 9 10 11 12 13 14 15 16 17 18 19 20 21 22 23 24 25 26
053
FTUS43 KOAX 200532
TAFOFK
TAF
KOFK 200532Z 2006/2106 32005KT P6SM BKN200
     FM210000 02006KT P6SM SCT120
     FM210200 02005KT P6SM BKN110=

USA.gov is the U.S. government's official web portal to all federal, state and local government web resources and services.